createdAt,value
2023-03-07T00:00:00.605Z,95882.00
2023-03-07T00:02:27.498Z,95893.00
2023-03-07T00:04:54.278Z,95875.00
2023-03-07T00:07:21.115Z,95882.00
2023-03-07T00:09:48.166Z,95880.00
2023-03-07T00:12:14.943Z,95881.00
2023-03-07T00:14:41.829Z,95890.00
2023-03-07T00:17:09.560Z,95876.00
2023-03-07T00:19:36.335Z,95864.00
2023-03-07T00:22:03.260Z,95862.00
2023-03-07T00:24:30.367Z,95871.00
2023-03-07T00:26:57.102Z,95865.00
2023-03-07T00:29:23.895Z,95853.00
2023-03-07T00:31:50.842Z,95857.00
2023-03-07T00:34:17.730Z,95854.00
2023-03-07T00:36:44.641Z,95847.00
2023-03-07T00:39:11.714Z,95867.00
2023-03-07T00:41:38.918Z,95859.00
2023-03-07T00:44:05.682Z,95845.00
2023-03-07T00:46:32.735Z,95860.00
2023-03-07T00:48:59.915Z,95852.00
2023-03-07T00:51:27.303Z,95837.00
2023-03-07T00:53:54.494Z,95853.00
2023-03-07T00:56:25.143Z,95848.00
2023-03-07T00:58:52.425Z,95828.00
2023-03-07T01:01:24.041Z,95846.00
2023-03-07T01:03:56.332Z,95843.00
2023-03-07T01:06:30.063Z,95821.00
2023-03-07T01:09:04.172Z,95821.00
2023-03-07T01:11:32.057Z,95814.00
2023-03-07T01:14:02.644Z,95818.00
2023-03-07T01:16:33.636Z,95814.00
2023-03-07T01:19:04.852Z,95824.00
2023-03-07T01:21:36.359Z,95814.00
2023-03-07T01:24:06.004Z,95808.00
2023-03-07T01:26:34.738Z,95806.00
2023-03-07T01:29:04.962Z,95814.00
2023-03-07T01:31:35.027Z,95801.00
2023-03-07T01:34:03.695Z,95805.00
2023-03-07T01:36:35.504Z,95802.00
2023-03-07T01:39:16.924Z,95800.00
2023-03-07T01:41:49.260Z,95801.00
2023-03-07T01:44:25.727Z,95784.00
2023-03-07T01:46:58.396Z,95784.00
2023-03-07T01:49:42.315Z,95780.00
2023-03-07T01:52:29.848Z,95788.00
2023-03-07T01:55:06.071Z,95784.00
2023-03-07T01:57:38.174Z,95782.00
2023-03-07T02:00:11.201Z,95781.00
2023-03-07T02:02:47.357Z,95775.00
2023-03-07T02:05:35.494Z,95775.00
2023-03-07T02:08:04.156Z,95766.00
2023-03-07T02:10:34.945Z,95769.00
2023-03-07T02:13:01.829Z,95765.00
2023-03-07T02:15:29.078Z,95758.00
2023-03-07T02:17:58.776Z,95760.00
2023-03-07T02:21:05.481Z,95761.00
2023-03-07T02:24:02.115Z,95763.00
2023-03-07T02:26:28.841Z,95753.00
2023-03-07T02:28:56.693Z,95759.00
2023-03-07T02:31:23.888Z,95753.00
2023-03-07T02:33:50.947Z,95742.00
2023-03-07T02:36:24.747Z,95751.00
2023-03-07T02:39:06.848Z,95739.00
2023-03-07T02:41:37.565Z,95746.00
2023-03-07T02:44:10.549Z,95731.00
2023-03-07T02:46:37.417Z,95741.00
2023-03-07T02:49:04.268Z,95710.00
2023-03-07T02:51:32.336Z,95729.00
2023-03-07T02:53:59.424Z,95726.00
2023-03-07T02:56:26.424Z,95730.00
2023-03-07T02:58:53.392Z,95724.00
2023-03-07T03:01:20.515Z,95728.00
2023-03-07T03:03:48.131Z,95727.00
2023-03-07T03:06:15.164Z,95717.00
2023-03-07T03:08:41.985Z,95720.00
2023-03-07T03:11:08.836Z,95720.00
2023-03-07T03:13:37.672Z,95721.00
2023-03-07T03:16:06.082Z,95715.00
2023-03-07T03:18:33.296Z,95707.00
2023-03-07T03:21:00.130Z,95701.00
2023-03-07T03:23:28.509Z,95714.00
2023-03-07T03:26:07.788Z,95698.00
2023-03-07T03:28:35.958Z,95719.00
2023-03-07T03:31:08.401Z,95682.00
2023-03-07T03:33:37.274Z,95720.00
2023-03-07T03:36:15.605Z,95715.00
2023-03-07T03:38:45.976Z,95714.00
2023-03-07T03:41:17.968Z,95704.00
2023-03-07T03:43:46.898Z,95698.00
2023-03-07T03:46:14.489Z,95697.00
2023-03-07T03:48:42.122Z,95697.00
2023-03-07T03:51:16.732Z,95691.00
2023-03-07T03:53:43.838Z,95689.00
2023-03-07T03:56:17.975Z,95699.00
2023-03-07T03:58:49.249Z,95695.00
2023-03-07T04:01:16.115Z,95687.00
2023-03-07T04:03:47.165Z,95696.00
2023-03-07T04:06:22.426Z,95693.00
2023-03-07T04:08:51.400Z,95692.00
2023-03-07T04:11:20.352Z,95681.00
2023-03-07T04:13:47.199Z,95686.00
2023-03-07T04:16:15.629Z,95685.00
2023-03-07T04:18:43.133Z,95686.00
2023-03-07T04:21:11.355Z,95679.00
2023-03-07T04:23:39.075Z,95676.00
2023-03-07T04:26:09.223Z,95674.00
2023-03-07T04:28:45.746Z,95674.00
2023-03-07T04:31:31.547Z,95674.00
2023-03-07T04:34:00.788Z,95662.00
2023-03-07T04:36:27.911Z,95658.00
2023-03-07T04:38:54.774Z,95657.00
2023-03-07T04:41:26.807Z,95658.00
2023-03-07T04:43:58.309Z,95659.00
2023-03-07T04:46:26.216Z,95659.00
2023-03-07T04:48:53.786Z,95646.00
2023-03-07T04:51:22.396Z,95639.00
2023-03-07T04:53:50.272Z,95637.00
2023-03-07T04:56:17.662Z,95638.00
2023-03-07T04:58:46.094Z,95634.00
2023-03-07T05:01:13.951Z,95627.00
2023-03-07T05:03:41.088Z,95644.00
2023-03-07T05:06:14.730Z,95618.00
2023-03-07T05:08:43.365Z,95632.00
2023-03-07T05:11:10.547Z,95632.00
2023-03-07T05:13:37.477Z,95623.00
2023-03-07T05:16:05.389Z,95619.00
2023-03-07T05:18:32.239Z,95614.00
2023-03-07T05:21:00.142Z,95617.00
2023-03-07T05:23:27.839Z,95614.00
2023-03-07T05:25:55.599Z,95614.00
2023-03-07T05:28:22.782Z,95612.00
2023-03-07T05:30:49.729Z,95603.00
2023-03-07T05:33:16.687Z,95602.00
2023-03-07T05:35:43.656Z,95611.00
2023-03-07T05:38:12.492Z,95603.00
2023-03-07T05:40:40.368Z,95603.00
2023-03-07T05:43:08.282Z,95598.00
2023-03-07T05:45:35.321Z,95589.00
2023-03-07T05:48:02.266Z,95604.00
2023-03-07T05:50:30.771Z,95602.00
2023-03-07T05:52:57.906Z,95597.00
2023-03-07T05:55:27.681Z,95599.00
2023-03-07T05:57:54.536Z,95599.00
2023-03-07T06:00:22.466Z,95595.00
2023-03-07T06:02:55.260Z,95604.00
2023-03-07T06:05:23.266Z,95595.00
2023-03-07T06:07:51.691Z,95602.00
2023-03-07T06:10:18.779Z,95590.00
2023-03-07T06:12:51.011Z,95596.00
2023-03-07T06:15:19.093Z,95590.00
2023-03-07T06:17:48.294Z,95594.00
2023-03-07T06:20:16.372Z,95599.00
2023-03-07T06:22:43.154Z,95600.00
2023-03-07T06:25:10.174Z,95608.00
2023-03-07T06:27:38.263Z,95599.00
2023-03-07T06:30:08.696Z,95606.00
2023-03-07T06:32:36.180Z,95590.00
2023-03-07T06:35:05.137Z,95606.00
2023-03-07T06:37:32.167Z,95594.00
2023-03-07T06:40:00.711Z,95605.00
2023-03-07T06:42:27.510Z,95581.00
2023-03-07T06:44:54.523Z,95589.00
2023-03-07T06:47:21.370Z,95591.00
2023-03-07T06:49:48.568Z,95586.00
2023-03-07T06:52:15.825Z,95588.00
2023-03-07T06:54:42.669Z,95579.00
2023-03-07T06:57:09.498Z,95587.00
2023-03-07T06:59:37.181Z,95580.00
2023-03-07T07:02:04.888Z,95583.00
2023-03-07T07:04:33.908Z,95572.00
2023-03-07T07:07:00.792Z,95574.00
2023-03-07T07:09:29.025Z,95577.00
2023-03-07T07:11:56.599Z,95574.00
2023-03-07T07:14:23.628Z,95582.00
2023-03-07T07:16:51.200Z,95572.00
2023-03-07T07:19:18.660Z,95572.00
2023-03-07T07:21:46.281Z,95584.00
2023-03-07T07:24:13.497Z,95573.00
2023-03-07T07:26:40.612Z,95580.00
2023-03-07T07:29:08.728Z,95574.00
2023-03-07T07:31:36.148Z,95565.00
2023-03-07T07:34:04.536Z,95566.00
2023-03-07T07:36:34.232Z,95559.00
2023-03-07T07:39:05.300Z,95569.00
2023-03-07T07:41:34.853Z,95573.00
2023-03-07T07:44:02.037Z,95585.00
2023-03-07T07:46:36.720Z,95587.00
2023-03-07T07:49:05.132Z,95580.00
2023-03-07T07:51:33.650Z,95581.00
2023-03-07T07:54:01.032Z,95579.00
2023-03-07T07:56:28.347Z,95576.00
2023-03-07T07:58:55.140Z,95581.00
2023-03-07T08:01:25.013Z,95572.00
2023-03-07T08:03:51.998Z,95572.00
2023-03-07T08:06:22.603Z,95592.00
2023-03-07T08:08:49.707Z,95577.00
2023-03-07T08:11:19.138Z,95571.00
2023-03-07T08:13:46.394Z,95587.00
2023-03-07T08:16:20.126Z,95584.00
2023-03-07T08:19:05.084Z,95568.00
2023-03-07T08:21:31.877Z,95557.00
2023-03-07T08:23:58.642Z,95563.00
2023-03-07T08:26:25.757Z,95568.00
2023-03-07T08:28:52.606Z,95554.00
2023-03-07T08:31:23.805Z,95562.00
2023-03-07T08:33:52.074Z,95564.00
2023-03-07T08:36:19.005Z,95552.00
2023-03-07T08:38:52.795Z,95565.00
2023-03-07T08:41:22.301Z,95575.00
2023-03-07T08:43:49.611Z,95562.00
2023-03-07T08:46:16.569Z,95564.00
2023-03-07T08:48:43.543Z,95549.00
2023-03-07T08:51:15.619Z,95555.00
2023-03-07T08:53:44.465Z,95562.00
2023-03-07T08:56:17.347Z,95565.00
2023-03-07T08:58:44.494Z,95556.00
2023-03-07T09:01:13.195Z,95557.00
2023-03-07T09:03:40.116Z,95549.00
2023-03-07T09:06:06.926Z,95563.00
2023-03-07T09:08:34.102Z,95550.00
2023-03-07T09:11:03.600Z,95555.00
2023-03-07T09:13:30.694Z,95560.00
2023-03-07T09:15:58.120Z,95555.00
2023-03-07T09:18:25.163Z,95564.00
2023-03-07T09:20:51.959Z,95569.00
2023-03-07T09:23:18.815Z,95556.00
2023-03-07T09:25:45.860Z,95556.00
2023-03-07T09:28:12.872Z,95564.00
2023-03-07T09:30:39.712Z,95562.00
2023-03-07T09:33:06.548Z,95552.00
2023-03-07T09:35:33.633Z,95562.00
2023-03-07T09:38:00.966Z,95558.00
2023-03-07T09:40:28.593Z,95557.00
2023-03-07T09:43:04.406Z,95565.00
2023-03-07T09:46:08.583Z,95538.00
2023-03-07T09:49:25.597Z,95544.00
2023-03-07T09:51:58.553Z,95542.00
2023-03-07T09:54:40.354Z,95542.00
2023-03-07T09:57:20.529Z,95537.00
2023-03-07T09:59:53.711Z,95535.00
2023-03-07T10:02:47.625Z,95541.00
2023-03-07T10:05:39.631Z,95546.00
2023-03-07T10:08:13.453Z,95548.00
2023-03-07T10:10:47.301Z,95538.00
2023-03-07T10:13:45.790Z,95530.00
2023-03-07T10:16:46.325Z,95551.00
2023-03-07T10:19:46.532Z,95531.00
2023-03-07T10:22:51.183Z,95531.00
2023-03-07T10:25:34.795Z,95532.00
2023-03-07T10:28:25.528Z,95519.00
2023-03-07T10:30:59.606Z,95522.00
2023-03-07T10:33:30.185Z,95527.00
2023-03-07T10:36:15.708Z,95523.00
2023-03-07T10:39:12.273Z,95526.00
2023-03-07T10:41:39.059Z,95518.00
2023-03-07T10:44:05.967Z,95517.00
2023-03-07T10:46:38.089Z,95524.00
2023-03-07T10:49:18.928Z,95516.00
2023-03-07T10:52:17.729Z,95517.00
2023-03-07T10:54:44.596Z,95519.00
2023-03-07T10:57:17.938Z,95508.00
2023-03-07T10:59:50.000Z,95509.00
2023-03-07T11:02:46.286Z,95507.00
2023-03-07T11:05:34.273Z,95516.00
2023-03-07T11:08:21.265Z,95516.00
2023-03-07T11:10:48.072Z,95530.00
2023-03-07T11:13:18.763Z,95519.00
2023-03-07T11:15:46.548Z,95515.00
2023-03-07T11:18:42.992Z,95519.00
2023-03-07T11:21:34.447Z,95520.00
2023-03-07T11:24:22.719Z,95512.00
2023-03-07T11:26:58.602Z,95541.00
2023-03-07T11:29:28.184Z,95519.00
2023-03-07T11:32:21.125Z,95520.00
2023-03-07T11:34:59.273Z,95525.00
2023-03-07T11:37:40.667Z,95514.00
2023-03-07T11:40:55.352Z,95518.00
2023-03-07T11:44:05.841Z,95514.00
2023-03-07T11:46:52.199Z,95518.00
2023-03-07T11:49:46.843Z,95520.00
2023-03-07T11:52:43.650Z,95522.00
2023-03-07T11:55:47.020Z,95515.00
2023-03-07T11:58:56.195Z,95517.00
2023-03-07T12:01:45.123Z,95531.00
2023-03-07T12:04:39.459Z,95516.00
2023-03-07T12:07:58.745Z,95523.00
2023-03-07T12:10:44.555Z,95525.00
2023-03-07T12:13:26.614Z,95510.00
2023-03-07T12:16:27.217Z,95513.00
2023-03-07T12:19:12.488Z,95517.00
2023-03-07T12:22:34.424Z,95512.00
2023-03-07T12:25:29.305Z,95513.00
2023-03-07T12:28:32.897Z,95512.00
2023-03-07T12:31:20.087Z,95521.00
2023-03-07T12:34:20.430Z,95517.00
2023-03-07T12:37:06.160Z,95511.00
2023-03-07T12:39:51.841Z,95498.00
2023-03-07T12:43:00.326Z,95516.00
2023-03-07T12:45:40.805Z,95497.00
2023-03-07T12:48:21.587Z,95503.00
2023-03-07T12:51:09.323Z,95504.00
2023-03-07T12:53:44.204Z,95506.00
2023-03-07T12:56:41.115Z,95515.00
2023-03-07T12:59:16.375Z,95497.00
2023-03-07T13:02:03.241Z,95501.00
2023-03-07T13:04:39.115Z,95508.00
2023-03-07T13:07:31.862Z,95505.00
2023-03-07T13:10:03.880Z,95500.00
2023-03-07T13:12:35.592Z,95503.00
2023-03-07T13:15:02.336Z,95496.00
2023-03-07T13:17:34.734Z,95502.00
2023-03-07T13:20:12.534Z,95502.00
2023-03-07T13:22:39.187Z,95501.00
2023-03-07T13:25:21.116Z,95500.00
2023-03-07T13:27:53.924Z,95501.00
2023-03-07T13:30:22.073Z,95505.00
2023-03-07T13:32:48.924Z,95496.00
2023-03-07T13:35:30.669Z,95502.00
2023-03-07T13:38:13.444Z,95501.00
2023-03-07T13:40:48.707Z,95515.00
2023-03-07T13:43:27.473Z,95510.00
2023-03-07T13:46:03.880Z,95511.00
2023-03-07T13:48:30.863Z,95511.00
2023-03-07T13:51:00.709Z,95512.00
2023-03-07T13:53:44.498Z,95514.00
2023-03-07T13:56:24.817Z,95501.00
2023-03-07T13:59:09.763Z,95509.00
2023-03-07T14:01:40.573Z,95513.00
2023-03-07T14:04:36.768Z,95516.00
2023-03-07T14:07:26.184Z,95512.00
2023-03-07T14:10:03.861Z,95506.00
2023-03-07T14:12:56.650Z,95519.00
2023-03-07T14:15:49.432Z,95507.00
2023-03-07T14:18:57.475Z,95515.00
2023-03-07T14:21:50.521Z,95509.00
2023-03-07T14:24:46.425Z,95519.00
2023-03-07T14:27:16.330Z,95519.00
2023-03-07T14:29:56.885Z,95516.00
2023-03-07T14:32:30.673Z,95526.00
2023-03-07T14:34:59.317Z,95525.00
2023-03-07T14:37:32.754Z,95524.00
2023-03-07T14:39:59.493Z,95522.00
2023-03-07T14:42:38.143Z,95535.00
2023-03-07T14:45:23.131Z,95524.00
2023-03-07T14:48:32.203Z,95539.00
2023-03-07T14:51:14.964Z,95539.00
2023-03-07T14:53:42.981Z,95514.00
2023-03-07T14:56:10.878Z,95529.00
2023-03-07T14:59:00.331Z,95536.00
2023-03-07T15:01:40.746Z,95526.00
2023-03-07T15:04:27.848Z,95536.00
2023-03-07T15:07:04.313Z,95530.00
2023-03-07T15:09:33.734Z,95533.00
2023-03-07T15:12:15.006Z,95529.00
2023-03-07T15:14:50.484Z,95545.00
2023-03-07T15:17:23.418Z,95539.00
2023-03-07T15:20:09.929Z,95556.00
2023-03-07T15:22:39.576Z,95558.00
2023-03-07T15:25:19.163Z,95548.00
2023-03-07T15:27:46.318Z,95536.00
2023-03-07T15:30:26.131Z,95544.00
2023-03-07T15:33:14.120Z,95555.00
2023-03-07T15:35:41.954Z,95549.00
2023-03-07T15:38:25.876Z,95556.00
2023-03-07T15:40:52.708Z,95557.00
2023-03-07T15:43:34.934Z,95550.00
2023-03-07T15:46:15.444Z,95558.00
2023-03-07T15:48:51.969Z,95561.00
2023-03-07T15:51:22.608Z,95561.00
2023-03-07T15:54:04.247Z,95564.00
2023-03-07T15:56:40.456Z,95567.00
2023-03-07T15:59:38.322Z,95561.00
2023-03-07T16:02:33.313Z,95566.00
2023-03-07T16:05:26.999Z,95559.00
2023-03-07T16:07:56.818Z,95554.00
2023-03-07T16:10:31.262Z,95567.00
2023-03-07T16:13:00.799Z,95561.00
2023-03-07T16:15:28.312Z,95565.00
2023-03-07T16:17:56.449Z,95562.00
2023-03-07T16:20:27.420Z,95558.00
2023-03-07T16:22:54.941Z,95560.00
2023-03-07T16:25:26.243Z,95565.00
2023-03-07T16:27:56.964Z,95559.00
2023-03-07T16:30:28.087Z,95564.00
2023-03-07T16:32:56.135Z,95583.00
2023-03-07T16:35:28.576Z,95569.00
2023-03-07T16:37:56.088Z,95565.00
2023-03-07T16:40:25.867Z,95585.00
2023-03-07T16:42:53.332Z,95578.00
2023-03-07T16:45:30.911Z,95567.00
2023-03-07T16:48:02.100Z,95588.00
2023-03-07T16:50:32.350Z,95585.00
2023-03-07T16:52:59.812Z,95574.00
2023-03-07T16:55:27.274Z,95582.00
2023-03-07T16:57:59.749Z,95587.00
2023-03-07T17:00:28.428Z,95582.00
2023-03-07T17:03:00.286Z,95602.00
2023-03-07T17:05:29.910Z,95592.00
2023-03-07T17:07:58.701Z,95600.00
2023-03-07T17:10:26.939Z,95594.00
2023-03-07T17:12:56.713Z,95610.00
2023-03-07T17:15:30.280Z,95610.00
2023-03-07T17:17:59.290Z,95625.00
2023-03-07T17:20:27.645Z,95623.00
2023-03-07T17:22:54.543Z,95632.00
2023-03-07T17:25:22.824Z,95619.00
2023-03-07T17:28:04.872Z,95634.00
2023-03-07T17:30:33.370Z,95636.00
2023-03-07T17:33:01.371Z,95639.00
2023-03-07T17:35:30.214Z,95650.00
2023-03-07T17:37:57.042Z,95652.00
2023-03-07T17:40:23.838Z,95642.00
2023-03-07T17:42:51.820Z,95655.00
2023-03-07T17:45:18.980Z,95656.00
2023-03-07T17:47:50.371Z,95664.00
2023-03-07T17:50:19.343Z,95667.00
2023-03-07T17:52:46.157Z,95659.00
2023-03-07T17:55:15.533Z,95650.00
2023-03-07T17:57:43.323Z,95680.00
2023-03-07T18:00:13.203Z,95674.00
2023-03-07T18:02:44.916Z,95656.00
2023-03-07T18:05:13.287Z,95680.00
2023-03-07T18:07:41.547Z,95672.00
2023-03-07T18:10:10.548Z,95684.00
2023-03-07T18:12:39.141Z,95692.00
2023-03-07T18:15:16.354Z,95681.00
2023-03-07T18:17:49.095Z,95685.00
2023-03-07T18:20:19.846Z,95688.00
2023-03-07T18:22:46.710Z,95696.00
2023-03-07T18:25:16.632Z,95696.00
2023-03-07T18:27:44.615Z,95691.00
2023-03-07T18:30:12.437Z,95691.00
2023-03-07T18:32:40.379Z,95704.00
2023-03-07T18:35:08.025Z,95699.00
2023-03-07T18:37:35.017Z,95718.00
2023-03-07T18:40:02.570Z,95709.00
2023-03-07T18:42:30.302Z,95692.00
2023-03-07T18:44:57.070Z,95708.00
2023-03-07T18:47:23.920Z,95704.00
2023-03-07T18:49:53.298Z,95710.00
2023-03-07T18:52:20.135Z,95701.00
2023-03-07T18:54:48.936Z,95702.00
2023-03-07T18:57:16.069Z,95725.00
2023-03-07T18:59:43.009Z,95723.00
2023-03-07T19:02:10.835Z,95717.00
2023-03-07T19:04:37.636Z,95709.00
2023-03-07T19:07:04.399Z,95724.00
2023-03-07T19:09:31.537Z,95743.00
2023-03-07T19:11:58.442Z,95730.00
2023-03-07T19:14:26.314Z,95746.00
2023-03-07T19:16:53.489Z,95739.00
2023-03-07T19:19:20.445Z,95725.00
2023-03-07T19:21:47.273Z,95733.00
2023-03-07T19:24:14.085Z,95727.00
2023-03-07T19:26:42.606Z,95730.00
2023-03-07T19:29:12.206Z,95728.00
2023-03-07T19:31:39.292Z,95723.00
2023-03-07T19:34:06.319Z,95740.00
2023-03-07T19:36:35.085Z,95733.00
2023-03-07T19:39:02.138Z,95728.00
2023-03-07T19:41:31.527Z,95750.00
2023-03-07T19:44:00.628Z,95752.00
2023-03-07T19:46:27.999Z,95753.00
2023-03-07T19:48:55.114Z,95762.00
2023-03-07T19:51:25.790Z,95759.00
2023-03-07T19:53:56.006Z,95764.00
2023-03-07T19:56:30.247Z,95773.00
2023-03-07T19:58:59.998Z,95781.00
2023-03-07T20:01:28.962Z,95786.00
2023-03-07T20:03:56.738Z,95769.00
2023-03-07T20:06:27.768Z,95780.00
2023-03-07T20:08:55.967Z,95791.00
2023-03-07T20:11:29.324Z,95782.00
2023-03-07T20:13:59.279Z,95806.00
2023-03-07T20:16:29.093Z,95791.00
2023-03-07T20:19:00.406Z,95794.00
2023-03-07T20:21:28.866Z,95786.00
2023-03-07T20:24:00.638Z,95793.00
2023-03-07T20:26:37.020Z,95801.00
2023-03-07T20:29:07.007Z,95806.00
2023-03-07T20:31:36.032Z,95814.00
2023-03-07T20:34:03.279Z,95809.00
2023-03-07T20:36:33.519Z,95815.00
2023-03-07T20:39:12.955Z,95826.00
2023-03-07T20:41:41.618Z,95823.00
2023-03-07T20:44:13.584Z,95825.00
2023-03-07T20:46:41.600Z,95810.00
2023-03-07T20:49:12.590Z,95826.00
2023-03-07T20:51:40.791Z,95837.00
2023-03-07T20:54:13.133Z,95830.00
2023-03-07T20:56:41.080Z,95838.00
2023-03-07T20:59:12.328Z,95854.00
2023-03-07T21:01:39.698Z,95840.00
2023-03-07T21:04:12.393Z,95837.00
2023-03-07T21:06:42.712Z,95843.00
2023-03-07T21:09:12.101Z,95849.00
2023-03-07T21:11:44.898Z,95828.00
2023-03-07T21:14:13.465Z,95834.00
2023-03-07T21:16:40.397Z,95852.00
2023-03-07T21:19:07.744Z,95868.00
2023-03-07T21:21:35.789Z,95865.00
2023-03-07T21:24:03.510Z,95856.00
2023-03-07T21:26:33.695Z,95853.00
2023-03-07T21:29:00.801Z,95853.00
2023-03-07T21:31:32.072Z,95853.00
2023-03-07T21:34:06.379Z,95876.00
2023-03-07T21:36:33.992Z,95864.00
2023-03-07T21:39:04.066Z,95877.00
2023-03-07T21:41:31.285Z,95873.00
2023-03-07T21:43:59.126Z,95874.00
2023-03-07T21:46:26.649Z,95873.00
2023-03-07T21:48:54.017Z,95873.00
2023-03-07T21:51:21.652Z,95881.00
2023-03-07T21:53:48.533Z,95871.00
2023-03-07T21:56:17.274Z,95873.00
2023-03-07T21:58:49.053Z,95858.00
2023-03-07T22:01:26.501Z,95878.00
2023-03-07T22:03:57.109Z,95868.00
2023-03-07T22:06:25.067Z,95881.00
2023-03-07T22:08:51.992Z,95888.00
2023-03-07T22:11:18.903Z,95887.00
2023-03-07T22:13:45.677Z,95870.00
2023-03-07T22:16:17.881Z,95876.00
2023-03-07T22:18:44.744Z,95882.00
2023-03-07T22:21:14.743Z,95911.00
2023-03-07T22:23:42.748Z,95894.00
2023-03-07T22:26:12.078Z,95901.00
2023-03-07T22:28:40.924Z,95892.00
2023-03-07T22:31:11.881Z,95895.00
2023-03-07T22:33:40.208Z,95903.00
2023-03-07T22:36:11.009Z,95894.00
2023-03-07T22:38:38.209Z,95889.00
2023-03-07T22:41:17.543Z,95914.00
2023-03-07T22:43:44.611Z,95916.00
2023-03-07T22:46:12.158Z,95905.00
2023-03-07T22:48:39.954Z,95895.00
2023-03-07T22:51:17.600Z,95915.00
2023-03-07T22:53:44.602Z,95909.00
2023-03-07T22:56:37.715Z,95889.00
2023-03-07T22:59:06.010Z,95900.00
2023-03-07T23:01:32.958Z,95913.00
2023-03-07T23:04:00.752Z,95910.00
2023-03-07T23:06:31.496Z,95916.00
2023-03-07T23:08:59.702Z,95904.00
2023-03-07T23:11:29.479Z,95889.00
2023-03-07T23:13:56.574Z,95902.00
2023-03-07T23:16:28.342Z,95910.00
2023-03-07T23:18:57.834Z,95906.00
2023-03-07T23:21:29.898Z,95916.00
2023-03-07T23:23:59.057Z,95911.00
2023-03-07T23:26:33.331Z,95904.00
2023-03-07T23:29:01.098Z,95921.00
2023-03-07T23:31:33.170Z,95902.00
2023-03-07T23:34:03.887Z,95907.00
2023-03-07T23:36:32.620Z,95904.00
2023-03-07T23:39:00.005Z,95909.00
2023-03-07T23:41:28.011Z,95899.00
2023-03-07T23:43:58.089Z,95909.00
2023-03-07T23:46:26.755Z,95907.00
2023-03-07T23:48:54.760Z,95919.00
2023-03-07T23:51:22.744Z,95913.00
2023-03-07T23:53:49.623Z,95924.00
2023-03-07T23:56:16.925Z,95912.00
2023-03-07T23:58:44.079Z,95906.00
